Tiempo atmosférico en la estación meteorológica de Yecla, Murcia (640 m.)



Fecha
DESCASC
Temp. máxima en grados centígrados (hora)
DESCASC
Temp. mínima en grados centígrados (hora)
DESCASC
Temp. media en grados centígrados
DESCASC
Racha de viento máxima en m/sg (hora)
DESCASC
Velocidad máxima media en intervalos de 10 minutos(hora)
DESCASC
Precipitaciones diarias en mm
DESCASC
Precipitaciones de 00:00 a 06:00 en mm
DESCASC
Precipitaciones de 06:00 a 12:00 en mm
DESCASC
Precipitaciones de 12:00 a 18:00 en mm
DESCASC
Precipitaciones de 18:00 a 24:00 en mm
DESCASC
10-11-2019 11.1 (14:40) 5 (00:00) 8.1 21.94 (12:40) 10.83 (10:20) 1 0.2 0.8 0 0
09-11-2019 13.7 (14:30) 6.3 (00:00) 10 21.67 (01:40) 12.22 (01:20) 0.8 0 0 0 0.8
08-11-2019 12.2 (15:10) 5.7 (00:00) 8.9 20 (12:00) 11.39 (11:00) 0 0 0 0 0
07-11-2019 16.7 (15:30) 6.8 (00:00) 11.8 12.78 (03:30) 7.78 (03:20) 0.4 0 0 0.4 0
06-11-2019 15.8 (15:50) 8.2 (00:00) 12 20.28 (03:30) 10.83 (03:40) 0 0 0 0 0
05-11-2019 15.5 (02:00) 9.3 (00:00) 12.4 15.83 (13:50) 9.72 (14:20) 1.2 0.2 0.2 0 0.8
04-11-2019 21 (13:30) 12 (00:00) 16.5 15.83 (23:10) 10 (23:10) 0 0 0 0 0
03-11-2019 21.1 (14:40) 13.9 (00:00) 17.5 22.5 (12:40) 13.61 (11:30) 0 0 0 0 0
02-11-2019 22.1 (14:20) 14.6 (00:00) 18.4 15.28 (12:20) 10.28 (06:50) 0 0 0 0 0
01-11-2019 23.2 (15:10) 16.5 (00:00) 19.9 17.22 (13:10) 8.61 (08:30) 0 0 0 0 0
31-10-2019 22.1 (15:10) 14 (05:10) 18.1 15.83 (08:30) 8.61 (15:20) 0 0 0 0 0
30-10-2019 22.8 (14:30) 12.9 (00:00) 17.8 13.89 (04:10) 8.33 (00:20) 0 0 0 0 0
29-10-2019 23 (14:50) 9.4 (00:00) 16.2 13.89 (22:30) 7.78 (20:30) 0 0 0 0 0
28-10-2019 22 (16:20) 9.4 (00:00) 15.7 5 (12:30) 3.33 (12:30) 0 0 0 0 0
27-10-2019 21.6 (15:30) 7.2 (00:00) 14.4 5.56 (12:50) 3.89 (12:50) 0 0 0 0 0
26-10-2019 24.3 (16:50) 7.6 (00:00) 15.9 6.39 (18:50) 3.89 (07:10) 0 0 0 0 0
25-10-2019 23.6 (16:10) 10.2 (00:00) 16.9 14.17 (05:20) 9.72 (09:40) 0 0 0 0 0
24-10-2019 16.1 (17:30) 9.2 (00:00) 12.7 16.39 (14:20) 8.89 (14:20) 0 0 0 0 0
23-10-2019 15.4 (13:50) 6.3 (00:00) 10.8 11.39 (05:20) 6.67 (05:00) 0 0 0 0 0
22-10-2019 11.8 (03:40) 9.3 (12:00) 10.6 9.72 (21:20) 5.56 (21:50) -- -- -- 4.2 0.2
21-10-2019 17.7 (15:10) 4.2 (00:00) 11 6.94 (00:20) 3.61 (04:20) -- -- -- -- --
20-10-2019 17.2 (18:20) 11.8 (00:00) 14.5 13.89 (06:40) 10 (06:40) 0 0 0 0 0
19-10-2019 25.6 (15:50) 9 (00:00) 17.3 7.78 (15:30) 5.56 (15:40) 0 0 0 0 0
18-10-2019 25.8 (16:20) 9.8 (00:00) 17.8 6.67 (10:30) 3.33 (12:10) 0 0 0 0 0
17-10-2019 24.1 (16:10) 5.4 (00:00) 14.8 11.11 (14:10) 6.39 (13:20) 0 0 0 0 0
16-10-2019 22.9 (16:50) 4.3 (00:00) 13.6 10 (00:20) 5.83 (00:20) 0 0 0 0 0
15-10-2019 19.2 (16:20) 10.4 (00:00) 14.8 15 (05:10) 7.5 (12:40) 1.2 0.8 0.4 0 0
14-10-2019 25.2 (17:30) 12.9 (00:00) 19.1 13.33 (23:10) 7.5 (18:50) 0 0 0 0 0

Gráficas

Temp. máximas Temp. mínimas Temp. medias Precipitaciones Rachas de viento máximas Velocidades máximas media en intervalos de 10 minutos

Datos horarios

Fecha y hora oficial Temperatura (ºC) Velocidad del viento (km/h) Dirección del viento Racha (km/h) Dirección de racha Precipitación (mm) Presión (hPa) Tendencia (hPa) Humedad (%)
2019-11-12 23:00:00 9.5 9 Sudoeste 36 Oeste 0 938 -0.3 57
2019-11-12 22:00:00 9.6 15 Oeste 48 Oeste 0 938.3 0 51
2019-11-12 21:00:00 10.1 28 Oeste 53 Sudoeste 0 938.3 0.2 49
2019-11-12 20:00:00 10.1 27 Oeste 48 Oeste 0 938.3 0.3 49
2019-11-12 19:00:00 10.6 27 Oeste 49 Oeste 0 938.3 0.3 46
2019-11-12 18:00:00 11.3 24 Oeste 48 Oeste 0 938.1 0.2 41
2019-11-12 17:00:00 12.5 25 Oeste 58 Oeste 0 938 -0.3 38
2019-11-12 16:00:00 13.8 26 Oeste 61 Oeste 0 938 -0.8 36
2019-11-12 15:00:00 13.9 26 Oeste 42 Oeste 0 937.9 -1.3 39
2019-11-12 14:00:00 13.6 14 Oeste 45 Oeste 0 938.3 -1.4 39
2019-11-12 13:00:00 12.9 18 Oeste 42 Sudoeste 0 938.8 -0.8 40
2019-11-12 12:00:00 12.3 -- -- -- -- 0 939.2 0 40
2019-11-12 11:00:00 10.9 10 Noroeste 39 Norte 0 939.7 0.3 43
2019-11-12 10:00:00 9.4 11 Oeste 42 Oeste 0 939.6 0.8 45
2019-11-12 09:00:00 7.8 15 Oeste 50 Oeste 0 939.2 -0.1 48
2019-11-12 08:00:00 6.2 15 Oeste -- -- 0 939.4 0.4 58
2019-11-12 07:00:00 6 23 Noroeste 48 Noroeste 0 938.8 -0.2 58
2019-11-12 06:00:00 6.2 12 Noroeste 33 Noroeste 0 939.3 -0.3 58
2019-11-12 05:00:00 6.4 8 Noroeste 43 Noroeste 0 939 -0.4 58
2019-11-12 04:00:00 6.7 18 Oeste 41 Oeste 0 939 -0.7 59
2019-11-12 03:00:00 7.1 18 Oeste 40 Oeste 0 939.6 -0.6 59
2019-11-12 02:00:00 7.5 12 Noroeste 49 Oeste 0 939.4 -1 62
2019-11-12 01:00:00 7.9 21 Oeste 48 Oeste 0 939.7 -0.1 68
2019-11-12 00:00:00 8.3 14 Noroeste 53 Oeste 0 940.2 0.5 71
2019-11-11 23:00:00 8.8 20 Oeste 59 Oeste 0 940.4 0.8 70
2019-11-11 22:00:00 9.1 23 Oeste 48 Oeste 0 939.8 0.7 71
2019-11-11 21:00:00 9.6 22 Oeste 49 Oeste 0 939.7 1.2 69
2019-11-11 20:00:00 9.6 24 Oeste 54 Oeste 0 939.6 0.9 69
2019-11-11 19:00:00 9.9 24 Oeste 52 Oeste 0 939.1 0.6 65
2019-11-11 18:00:00 10.4 22 Oeste 39 Oeste 0 938.5 0.3 61
2019-11-11 17:00:00 11 8 Sudoeste 37 Noroeste 0 938.7 0.1 58
2019-11-11 16:00:00 11.8 22 Oeste 46 Oeste 0 938.5 -0.4 54
2019-11-11 15:00:00 11.9 11 Oeste 51 Oeste 0 938.2 -2.1 51
2019-11-11 14:00:00 11.5 29 Oeste 57 Oeste 0 938.6 -2.3 50
2019-11-11 13:00:00 10.8 28 Oeste 56 Oeste 0 938.9 -2.1 52
2019-11-11 12:00:00 10 20 Oeste 37 Oeste 0 940.3 -0.8 53
2019-11-11 11:00:00 7.8 19 Oeste 50 Oeste 0 940.9 0.3 61
2019-11-11 10:00:00 7.1 27 Oeste 53 Oeste 0 941 1 61
2019-11-11 09:00:00 6.6 23 Oeste 62 Oeste 0 941.1 0.5 61
2019-11-11 08:00:00 6.1 27 Oeste 64 Oeste 0 940.6 -0.3 61
2019-11-11 07:00:00 5.9 32 Oeste 63 Oeste 0 940 -0.8 60
2019-11-11 06:00:00 5.2 19 Oeste 50 Oeste 0 940.6 -0.7 61
2019-11-11 05:00:00 4.9 14 Oeste 53 Noroeste 0 940.9 -0.2 63
2019-11-11 04:00:00 5.1 19 Oeste 42 Oeste 0 940.8 -0.7 61
2019-11-11 03:00:00 5 26 Oeste 54 Oeste 0 941.3 0.3 63
2019-11-11 02:00:00 5 27 Oeste 48 Oeste 0 941.1 0.5 64
2019-11-11 01:00:00 5.3 20 Oeste 43 Oeste 0 941.5 1.1 65
2019-11-11 00:00:00 5.9 26 Oeste 49 Oeste 0 941 0.7 63
2019-11-10 23:00:00 6.3 29 Oeste 58 Oeste 0 940.6 0.7 63
2019-11-10 22:00:00 6.7 26 Oeste 55 Oeste 0 940.4 0.5 63
2019-11-10 21:00:00 7.4 26 Oeste 71 Oeste 0 940.3 0.9 63
2019-11-10 20:00:00 8.1 36 Oeste 73 Oeste 0 939.9 0.9 58
2019-11-10 19:00:00 8.6 30 Oeste 68 Sudoeste 0 939.9 0.8 55
2019-11-10 18:00:00 8.9 26 Oeste 61 Oeste 0 939.4 0.2 53
2019-11-10 17:00:00 9.7 31 Oeste 59 Oeste 0 939 -0.3 48
2019-11-10 16:00:00 9.9 28 Oeste 62 Oeste 0 939.1 -0.4 49
2019-11-10 15:00:00 10.8 26 Oeste 62 Oeste 0 939.2 -0.8 42
2019-11-10 14:00:00 10.9 28 Oeste 61 Oeste 0 939.3 -0.7 43
2019-11-10 13:00:00 10.2 34 Oeste 79 Oeste 0 939.5 -1.2 47
2019-11-10 12:00:00 9.7 33 Oeste 67 Oeste 0 940 -0.7 49
2019-11-10 11:00:00 8.9 36 Oeste 64 Oeste 0 940 0 56
2019-11-10 10:00:00 8.3 24 Oeste 54 Oeste 0 940.7 0.3 65
2019-11-10 09:00:00 7.6 32 Oeste 63 Oeste 0.2 940.7 0.3 66
2019-11-10 08:00:00 6.2 35 Oeste 55 Oeste 0.6 940 0.7 70
2019-11-10 07:00:00 5.6 7 Noroeste 26 Norte 0 940.4 1.1 76
2019-11-10 06:00:00 7 21 Nordeste 57 Oeste 0 940.4 1.1 70
2019-11-10 05:00:00 9.1 32 Oeste 63 Oeste 0 939.3 -0.6 68
2019-11-10 04:00:00 9.4 29 Oeste 66 Oeste 0.2 939.3 -1.2 71
2019-11-10 03:00:00 10.6 30 Oeste 50 Oeste 0 939.3 -1.3 67
2019-11-10 02:00:00 9.8 20 Oeste 43 Oeste 0 939.9 -1.5 74
2019-11-10 01:00:00 9 17 Oeste 25 Oeste 0 940.5 -1.3 77
2019-11-10 00:00:00 8.7 16 Oeste 22 Oeste 0 940.6 -1.8 78
2019-11-09 23:00:00 8.5 14 Oeste 27 Oeste 0 941.4 -2 80
2019-11-09 22:00:00 8.4 17 Oeste 34 Oeste 0 941.8 -1.5 81
2019-11-09 21:00:00 8.9 17 Oeste 46 Oeste 0.8 942.4 -0.4 80
2019-11-09 20:00:00 11.3 30 Oeste 51 Oeste 0 943.4 0.4 46
2019-11-09 19:00:00 12.4 23 Oeste 39 Oeste 0 943.3 -0.1 41
2019-11-09 18:00:00 12.8 15 Oeste 41 Oeste 0 942.8 -0.8 38
2019-11-09 17:00:00 12.8 17 Oeste 39 Noroeste 0 943 -1.3 35
2019-11-09 16:00:00 12.9 16 Oeste 44 Oeste 0 943.4 -1.8 37
2019-11-09 15:00:00 12.9 27 Oeste 50 Oeste 0 943.6 -2.3 35
2019-11-09 14:00:00 13 17 Oeste 48 Oeste 0 944.3 -2.1 35
2019-11-09 13:00:00 13.2 21 Oeste 44 Oeste 0 945.2 -1.2 34
2019-11-09 12:00:00 11.8 25 Oeste 49 Oeste 0 945.9 -0.5 39
2019-11-09 11:00:00 10.3 20 Oeste 49 Oeste 0 946.4 0.6 45
2019-11-09 10:00:00 9.3 22 Oeste 50 Oeste 0 946.4 0.6 48
2019-11-09 09:00:00 8 25 Oeste 56 Oeste 0 946.4 0.8 53
2019-11-09 08:00:00 6.3 31 Oeste 57 Oeste 0 945.8 0.7 58
2019-11-09 07:00:00 6.7 29 Oeste 52 Oeste 0 945.8 1 57
2019-11-09 06:00:00 6.8 22 Oeste 51 Oeste 0 945.6 1.1 57
2019-11-09 05:00:00 7.3 25 Oeste 62 Oeste 0 945.1 0.5 55
2019-11-09 04:00:00 7.9 31 Oeste 61 Oeste 0 944.8 0.4 52
2019-11-09 03:00:00 8.3 40 Oeste 69 Oeste 0 944.5 0.3 52
2019-11-09 02:00:00 8.5 38 Oeste 78 Oeste 0 944.6 0.5 50
2019-11-09 01:00:00 9.1 43 Oeste 74 Oeste 0 944.4 0.1 47
2019-11-09 00:00:00 9.1 35 Oeste 63 Oeste 0 944.2 0.4 47
2019-11-08 23:00:00 9.2 33 Oeste 57 Oeste 0 944.1 0.7 47
2019-11-08 22:00:00 9 16 Oeste 45 Oeste 0 944.3 1.5 48
2019-11-08 21:00:00 9 11 Oeste 45 Oeste 0 943.8 1.6 41
2019-11-08 20:00:00 10.1 26 Oeste 63 Oeste 0 943.4 2.1 36
2019-11-08 19:00:00 10 23 Oeste 50 Oeste 0 942.8 2.1 39
2019-11-08 18:00:00 10.6 22 Oeste 49 Oeste 0 942.2 1.8 38
2019-11-08 17:00:00 11.7 24 Oeste 62 Oeste 0 941.3 0.5 35
2019-11-08 16:00:00 12.1 26 Oeste 61 Oeste 0 940.7 -0.2 37
2019-11-08 15:00:00 12.1 26 Oeste 56 Oeste 0 940.4 -0.1 38
2019-11-08 14:00:00 11.3 32 Oeste 59 Oeste 0 940.8 0.7 41
2019-11-08 13:00:00 10.7 23 Oeste 57 Oeste 0 940.9 0.9 44
2019-11-08 12:00:00 9.3 36 Oeste 72 Oeste 0 940.5 0.4 47
2019-11-08 11:00:00 8.4 41 Oeste 68 Oeste 0 940.1 1.9 52
2019-11-08 10:00:00 7.5 35 Oeste 62 Oeste 0 940 1.2 57
2019-11-08 09:00:00 6.7 27 Oeste 55 Oeste 0 940.1 1.8 63
2019-11-08 08:00:00 5.8 35 Oeste 60 Oeste 0 938.2 0.4 68
2019-11-08 07:00:00 6.3 27 Oeste 46 Oeste 0 938.8 1.4 67
2019-11-08 06:00:00 6.6 21 Oeste 48 Oeste 0 938.3 0.6 66
2019-11-08 05:00:00 7 26 Oeste 46 Oeste 0 937.8 0.1 66
2019-11-08 04:00:00 6.4 17 Oeste 36 Oeste 0 937.4 -0.7 73
2019-11-08 03:00:00 6.3 20 Oeste 37 Sudoeste 0 937.7 0.3 72
2019-11-08 02:00:00 5.8 12 Oeste 33 Noroeste 0 937.7 -0.1 71
2019-11-08 01:00:00 7.3 13 Noroeste 51 Oeste 0 938.1 0.5 66
2019-11-08 00:00:00 9.2 13 Oeste 32 Oeste 0 937.4 -0.1 51
2019-11-07 23:00:00 8.7 6 Oeste 38 Oeste 0 937.8 0.5 50
2019-11-07 22:00:00 10.2 20 Oeste 42 Oeste 0 937.6 0.7 39
2019-11-07 21:00:00 11.1 20 Oeste 38 Oeste 0 937.5 1 33
2019-11-07 20:00:00 11.9 13 Oeste 29 Oeste 0 937.3 1.2 40
2019-11-07 19:00:00 12.6 17 Oeste 33 Oeste 0 936.9 1.1 45
2019-11-07 18:00:00 13.4 15 Oeste 40 Oeste 0 936.5 0.4 55
2019-11-07 17:00:00 15 14 Oeste 32 Oeste 0 936.1 -0.7 55
2019-11-07 16:00:00 16.4 19 Oeste 40 Oeste 0 935.8 -1.4 52
2019-11-07 15:00:00 15.6 15 Oeste 29 Noroeste 0 936.1 -1.9 57
2019-11-07 14:00:00 14.3 14 Oeste 41 Oeste 0.4 936.8 -1.5 68
2019-11-07 13:00:00 13.9 12 Oeste 23 Oeste 0 937.2 -1.2 67
2019-11-07 12:00:00 14.3 17 Sudoeste 31 Sudoeste 0 938 -0.2 58
2019-11-07 11:00:00 13.9 21 Sudoeste 32 Sudoeste 0 938.3 0.1 59
2019-11-07 10:00:00 12.9 11 Oeste 22 Oeste 0 938.4 0.3 62
2019-11-07 09:00:00 10.8 9 Sudoeste 15 Sudoeste 0 938.2 -0.1 65
2019-11-07 08:00:00 7 2 Noroeste 9 Sur 0 938.2 -0.4 77
2019-11-07 07:00:00 7.1 6 Sudoeste 11 Sudoeste 0 938.1 -0.6 75
2019-11-07 06:00:00 8.4 10 Sudoeste 35 Oeste 0 938.3 -0.8 69
2019-11-07 05:00:00 9.5 20 Oeste 34 Oeste 0 938.6 -1 65
2019-11-07 04:00:00 10 22 Oeste 46 Oeste 0 938.7 -1.7 59
2019-11-07 03:00:00 10 21 Oeste 32 Oeste 0 939.1 -2 58
2019-11-07 02:00:00 8.7 12 Oeste 22 Oeste 0 939.6 -1.8 67
2019-11-07 01:00:00 8.5 15 Oeste 22 Oeste 0 940.4 -1.1 69
2019-11-07 00:00:00 8.2 10 Oeste 23 Oeste 0 941.1 -0.1 67
2019-11-06 23:00:00 9.4 15 Oeste 22 Oeste 0 941.4 0.2 63
2019-11-06 22:00:00 9.4 10 Oeste 18 Sudoeste 0 941.5 1 63
2019-11-06 21:00:00 10.2 11 Oeste 23 Sudoeste 0 941.2 0.7 60
2019-11-06 20:00:00 11.1 12 Sudoeste 36 Oeste 0 941.2 1.3 51
2019-11-06 19:00:00 12.1 18 Oeste 35 Oeste 0 940.5 0.4 46
2019-11-06 18:00:00 13 16 Oeste 38 Oeste 0 940.5 0.1 42
2019-11-06 17:00:00 14.7 17 Sudoeste 52 Oeste 0 939.9 -0.5 38
2019-11-06 16:00:00 15.7 20 Oeste 41 Sudoeste 0 940.1 -1 32
2019-11-06 15:00:00 15.4 18 Oeste 45 Oeste 0 940.4 -1.5 38
2019-11-06 14:00:00 15.3 21 Oeste 36 Oeste 0 940.4 -1.3 41
2019-11-06 13:00:00 15 17 Oeste 36 Oeste 0 941.1 -0.8 44
2019-11-06 12:00:00 14 18 Oeste 32 Oeste 0 941.9 0.5 48
2019-11-06 11:00:00 12.8 13 Oeste 22 Sudoeste 0 941.7 1.2 55
2019-11-06 10:00:00 11.2 8 Nordeste 32 Nordeste 0 941.9 1.7 58
2019-11-06 09:00:00 10.3 12 Oeste 36 Sudoeste 0 941.4 1.2 61
2019-11-06 08:00:00 9.1 22 Oeste 68 Oeste 0 940.5 1.1 63
2019-11-06 07:00:00 9.2 26 Oeste 53 Oeste 0 940.2 0.5 63
2019-11-06 06:00:00 9.5 30 Oeste 63 Oeste 0 940.2 0.3 62
2019-11-06 05:00:00 10.1 36 Oeste 64 Oeste 0 939.4 -1.1 59
2019-11-06 04:00:00 10.2 35 Oeste 73 Oeste 0 939.7 -0.9 62
2019-11-06 03:00:00 10.4 33 Oeste 67 Oeste 0 939.9 -0.6 63
2019-11-06 02:00:00 10.1 27 Oeste 48 Oeste 0 940.5 -0.3 66
2019-11-06 01:00:00 10.2 24 Oeste 44 Oeste 0 940.6 -0.2 67
2019-11-06 00:00:00 10.1 27 Oeste 49 Oeste 0 940.5 1 69
2019-11-05 23:00:00 9.4 13 Oeste 41 Oeste 0 940.8 1.5 72
2019-11-05 22:00:00 9.9 21 Oeste -- -- 0.8 940.8 2 73
2019-11-05 21:00:00 11.7 16 Oeste 31 Oeste 0 939.5 1.5 58
2019-11-05 20:00:00 12.1 18 Oeste 32 Oeste 0 939.3 2 54
2019-11-05 19:00:00 12.6 16 Oeste 44 Sudoeste 0 938.8 1.4 52
2019-11-05 18:00:00 13 19 Oeste 40 Oeste 0 938 0.9 49
2019-11-05 17:00:00 14.3 25 Oeste 53 Oeste 0 937.3 0.1 45
2019-11-05 16:00:00 15.1 24 Oeste 53 Oeste 0 937.4 -0.3 41
2019-11-05 15:00:00 15.3 28 Oeste 55 Oeste 0 937.1 -1.4 39
2019-11-05 14:00:00 14.8 35 Oeste 57 Oeste 0 937.2 -1.1 41
2019-11-05 13:00:00 14.2 24 Oeste 54 Oeste 0 937.7 -0.5 44
2019-11-05 12:00:00 12.8 26 Oeste 53 Oeste 0 938.5 0.9 48
2019-11-05 11:00:00 12.2 22 Oeste 55 Oeste 0 938.3 1.3 53
2019-11-05 10:00:00 12.1 19 Oeste 53 Oeste 0.2 938.2 2 64
2019-11-05 09:00:00 11.7 26 Oeste 39 Oeste 0 937.6 1.7 58
2019-11-05 08:00:00 10.8 17 Oeste 38 Oeste 0 937 2 60
2019-11-05 07:00:00 11.1 19 Oeste 41 Noroeste 0 936.2 1.6 62
2019-11-05 06:00:00 11.5 30 Oeste 49 Oeste 0 935.9 0.8 62
2019-11-05 05:00:00 12.2 23 Oeste 49 Oeste 0 935 0 60
2019-11-05 04:00:00 12.3 19 Oeste 50 Oeste 0 934.6 -0.1 72
2019-11-05 03:00:00 12.7 22 Oeste 47 Oeste 0.2 935.1 0.3 75
2019-11-05 02:00:00 15.5 24 Oeste 46 Oeste 0 935 -0.3 56
2019-11-05 01:00:00 15 28 Sudoeste 51 Oeste 0 934.7 -1.2 56
2019-11-05 00:00:00 15.2 28 Oeste 57 Oeste 0 934.8 -1.8 55
2019-11-04 23:00:00 15.5 34 Oeste 56 Sudoeste 0 935.3 -1.7 53
2019-11-04 22:00:00 15.2 29 Oeste 40 Oeste 0 935.9 -0.7 55
2019-11-04 21:00:00 14.3 10 Oeste 19 Oeste 0 936.6 0.1 59
2019-11-04 20:00:00 15.1 11 Oeste 23 Oeste 0 937 0.7 59
2019-11-04 19:00:00 15.8 17 Oeste 36 Oeste 0 936.6 -0.1 55
2019-11-04 18:00:00 17.1 24 Oeste 45 Oeste 0 936.5 -0.6 48
2019-11-04 17:00:00 19.3 27 Oeste 50 Oeste 0 936.3 -1.1 43
2019-11-04 16:00:00 19.4 30 Oeste 52 Oeste 0 936.7 -1.7 42
2019-11-04 15:00:00 20.5 29 Oeste 44 Oeste 0 937.1 -1.9 40
2019-11-04 14:00:00 20.6 26 Oeste 40 Oeste 0 937.4 -2.2 39
2019-11-04 13:00:00 20.2 22 Sudoeste 49 Oeste 0 938.4 -1.5 42
2019-11-04 12:00:00 19.5 33 Oeste 49 Sudoeste 0 939 -0.7 46
2019-11-04 11:00:00 18.1 20 Sudoeste 35 Oeste 0 939.6 0.4 55
2019-11-04 10:00:00 17.4 14 Sudoeste 24 Sudoeste 0 939.9 0.7 59
2019-11-04 09:00:00 15.8 13 Oeste 20 Oeste 0 939.7 0.4 64
2019-11-04 08:00:00 13.7 8 Oeste 20 Sudoeste 0 939.2 -0.1 72
2019-11-04 07:00:00 13.8 8 Oeste 15 Oeste 0 939.2 -0.5 72
2019-11-04 06:00:00 12.3 4 Oeste 10 Oeste 0 939.3 -0.6 76
2019-11-04 05:00:00 12.7 5 Oeste 32 Oeste 0 939.3 -0.9 69
2019-11-04 04:00:00 12.9 3 Este 27 Oeste 0 939.7 -0.3 66
2019-11-04 03:00:00 12.8 7 Noroeste 19 Oeste 0 939.9 0.3 67
2019-11-04 02:00:00 13.8 10 Oeste 41 Oeste 0 940.2 1 60
2019-11-04 01:00:00 14.3 22 Oeste 48 Oeste 0 940 1.2 58
2019-11-04 00:00:00 14.7 20 Oeste 62 Noroeste 0 939.6 1.4 56
2019-11-03 23:00:00 15 33 Oeste 57 Oeste 0 939.2 1.7 52
2019-11-03 22:00:00 15.2 37 Oeste 71 Noroeste 0 938.8 2.1 53
2019-11-03 21:00:00 15.3 34 Oeste 62 Oeste 0 938.2 2.6 54
2019-11-03 20:00:00 16.1 33 Oeste 60 Oeste 0 937.5 2.7 54
2019-11-03 19:00:00 16.8 22 Oeste 49 Noroeste 0 936.7 2.4 52
2019-11-03 18:00:00 17.8 26 Oeste 52 Oeste 0 935.6 2.4 48
2019-11-03 17:00:00 17.6 20 Noroeste 46 Noroeste 0 934.8 1.9 52
2019-11-03 16:00:00 17.6 16 Noroeste 53 Noroeste 0 934.3 1.7 54
2019-11-03 15:00:00 20.4 32 Oeste 74 Oeste 0 933.2 0.9 40
2019-11-03 14:00:00 20.4 40 Oeste 76 Oeste 0 932.9 1.1 42
2019-11-03 13:00:00 20.2 43 Oeste 81 Oeste 0 932.6 0.7 42
2019-11-03 12:00:00 20.1 42 Oeste 73 Oeste 0 932.3 0.9 44
2019-11-03 11:00:00 19.3 42 Oeste 71 Oeste 0 931.8 0.6 46
2019-11-03 10:00:00 18.1 41 Oeste 67 Oeste 0 931.9 0.5 49
2019-11-03 09:00:00 16.4 26 Oeste 54 Oeste 0 931.4 -0.1 56
2019-11-03 08:00:00 14.3 23 Oeste 37 Sudoeste 0 931.2 -1 60
2019-11-03 07:00:00 14.2 21 Sudoeste 41 Oeste 0 931.4 -1 58
2019-11-03 06:00:00 15.2 25 Oeste 46 Sudoeste 0 931.5 -1.3 54
2019-11-03 05:00:00 15.2 15 Sudoeste 33 Oeste 0 932.2 -0.8 55
2019-11-03 04:00:00 15.7 17 Sudoeste 31 Sudoeste 0 932.4 -1.6 66
2019-11-03 03:00:00 15.1 6 Oeste 19 Oeste 0 932.8 -1.4 72
2019-11-03 02:00:00 15.6 11 Oeste 32 Oeste 0 933 -1.9 70
2019-11-03 01:00:00 15.5 18 Oeste 30 Oeste 0 934 -1.2 70
2019-11-03 00:00:00 15.5 14 Oeste 23 Oeste 0 934.2 -1.4 69
2019-11-02 23:00:00 15.8 9 Oeste 18 Oeste 0 934.9 -1.1 67
2019-11-02 22:00:00 16 8 Oeste 23 Oeste 0 935.2 -1.2 64
2019-11-02 21:00:00 16.4 14 Oeste 28 Oeste 0 935.6 -0.6 64
2019-11-02 20:00:00 17 16 Oeste 26 Oeste 0 936 -0.1 60
2019-11-02 19:00:00 17.5 16 Oeste 35 Oeste 0 936.4 -0.4 57
2019-11-02 18:00:00 18.6 21 Oeste 36 Sudoeste 0 936.2 -0.9 49
2019-11-02 17:00:00 19.8 17 Sudoeste 31 Sudoeste 0 936.1 -1.5 49
2019-11-02 16:00:00 19.7 23 Oeste 50 Oeste 0 936.8 -1.7 47
2019-11-02 15:00:00 21.8 26 Oeste 47 Oeste 0 937.1 -1.9 39
2019-11-02 14:00:00 21.4 26 Oeste 45 Noroeste 0 937.6 -2.2 41
2019-11-02 13:00:00 20.9 31 Oeste 55 Oeste 0 938.5 -1.7 45
2019-11-02 12:00:00 19.8 30 Oeste 46 Oeste 0 939 -1.1 49
2019-11-02 11:00:00 19.9 20 Oeste 40 Oeste 0 939.8 0 53
2019-11-02 10:00:00 18.6 22 Oeste 37 Oeste 0 940.2 0.1 56
2019-11-02 09:00:00 16.9 21 Oeste 44 Oeste 0 940.1 -0.3 63
2019-11-02 08:00:00 16.8 26 Oeste 47 Oeste 0 939.8 -0.8 63
2019-11-02 07:00:00 17.2 33 Oeste 54 Oeste 0 940.1 -0.8 61
2019-11-02 06:00:00 17.2 24 Oeste 41 Oeste 0 940.4 -1.1 62
2019-11-02 05:00:00 17.1 25 Oeste 44 Oeste 0 940.6 -1.3 64
2019-11-02 04:00:00 17.3 24 Oeste 46 Oeste 0 940.9 -1.7 64
2019-11-02 03:00:00 17.5 25 Oeste 46 Oeste 0 941.5 -1.9 63
2019-11-02 02:00:00 17.7 19 Oeste 35 Oeste 0 941.9 -1.9 61
2019-11-02 01:00:00 17.6 10 Oeste 30 Oeste 0 942.6 -1.4 65
2019-11-02 00:00:00 18.2 17 Oeste 33 Oeste 0 943.4 -0.5 64
2019-11-01 23:00:00 18.6 13 Oeste 36 Sudoeste 0 943.8 -0.4 64
2019-11-01 22:00:00 19.2 23 Oeste 37 Oeste 0 944 -0.5 62
2019-11-01 21:00:00 19.2 24 Oeste 40 Oeste 0 943.9 -0.4 63
2019-11-01 20:00:00 19.2 12 Oeste 31 Oeste 0 944.2 -0.1 62
2019-11-01 19:00:00 19.8 15 Oeste 32 Oeste 0 944.5 -0.3 60
2019-11-01 18:00:00 20.7 21 Oeste 36 Oeste 0 944.3 -0.4 54
2019-11-01 17:00:00 22.6 14 Oeste 41 Oeste 0 944.3 -0.7 48
2019-11-01 16:00:00 22.8 19 Oeste 49 Oeste 0 944.8 -1.2 49
2019-11-01 15:00:00 22.9 23 Oeste 50 Oeste 0 944.7 -2.8 49
2019-11-01 14:00:00 22.6 29 Oeste 62 Oeste 0 945 -2.9 50
2019-11-01 13:00:00 22.3 28 Oeste 51 Oeste 0 946 -1.5 52
2019-11-01 12:00:00 21.2 15 Oeste 40 Oeste 0 947.5 0.1 55
2019-11-01 11:00:00 19.1 21 Oeste 53 Oeste 0 947.9 1.1 64
2019-11-01 10:00:00 18.8 25 Oeste 53 Oeste 0 947.5 0.3 68
2019-11-01 09:00:00 18.1 28 Oeste 58 Oeste 0 947.4 -0.1 72
2019-11-01 08:00:00 17.2 23 Oeste 42 Oeste 0 946.8 -0.9 75
2019-11-01 07:00:00 16.5 15 Oeste 31 Sudoeste 0 947.2 -0.5 76
2019-11-01 06:00:00 17.1 13 Oeste 43 Oeste 0 947.5 -0.5 72
2019-11-01 05:00:00 16.9 23 Oeste 45 Oeste 0 947.7 -0.9 71
2019-11-01 04:00:00 16.8 18 Oeste 38 Oeste 0 947.7 -0.9 71
2019-11-01 03:00:00 17 24 Oeste 47 Oeste 0 948 -1 69
2019-11-01 02:00:00 16.9 17 Oeste 29 Oeste 0 948.6 -0.5 69
2019-11-01 01:00:00 17.2 12 Oeste 28 Oeste 0 948.6 -0.7 69
2019-11-01 00:00:00 18.1 20 Oeste 31 Oeste 0 949 0 64
2019-10-31 23:00:00 18.9 18 Oeste 34 Oeste 0 949.1 0.6 59
2019-10-31 22:00:00 18.3 17 Oeste 33 Oeste 0 949.3 1.1 61
2019-10-31 21:00:00 19.1 12 Oeste 45 Oeste 0 949 1 55
2019-10-31 20:00:00 19.6 25 Oeste 44 Oeste 0 948.5 0.9 53
2019-10-31 19:00:00 19.4 18 Oeste 35 Sudoeste 0 948.2 0.4 55
2019-10-31 18:00:00 20 22 Oeste 51 Oeste 0 948 0.4 52
2019-10-31 17:00:00 21.2 24 Oeste 41 Oeste 0 947.6 -0.6 48
2019-10-31 16:00:00 21.7 22 Oeste 55 Oeste 0 947.8 -1 48
2019-10-31 15:00:00 21.9 26 Oeste 50 Oeste 0 947.6 -1.8 49
2019-10-31 14:00:00 21 18 Oeste 40 Oeste 0 948.2 -1.6 51
2019-10-31 13:00:00 20.5 15 Oeste 39 Oeste 0 948.8 -0.9 55
2019-10-31 12:00:00 19.9 16 Oeste 39 Oeste 0 949.4 0.5 59
2019-10-31 11:00:00 18.1 15 Oeste 32 Oeste 0 949.8 1.4 67
2019-10-31 10:00:00 17.9 17 Oeste 44 Oeste 0 949.7 1.3 67
2019-10-31 09:00:00 17.2 25 Oeste 57 Oeste 0 948.9 0.6 69
2019-10-31 08:00:00 16.8 28 Oeste 51 Oeste 0 948.4 0.2 70
2019-10-31 07:00:00 16.7 16 Oeste 31 Oeste 0 948.4 0.1 69
2019-10-31 06:00:00 15.4 6 Sur 15 Sur 0 948.3 -0.2 73
2019-10-31 05:00:00 14.2 5 Este 28 Oeste 0 948.2 -0.4 76
2019-10-31 04:00:00 16.5 16 Oeste 34 Oeste 0 948.3 -0.6 66
2019-10-31 03:00:00 16.9 7 Oeste 22 Oeste 0 948.5 -0.6 64
2019-10-31 02:00:00 17.2 10 Oeste 29 Oeste 0 948.6 -0.5 59
2019-10-31 01:00:00 18 18 Oeste 31 Oeste 0 948.9 -0.2 53
2019-10-31 00:00:00 17.6 3 Oeste 12 Noroeste 0 949.1 0.3 59
2019-10-30 23:00:00 18.5 9 Oeste 20 Oeste 0 949.1 0.7 53
2019-10-30 22:00:00 19 12 Oeste 25 Oeste 0 949.1 1 50
2019-10-30 21:00:00 19.6 17 Oeste 29 Oeste 0 948.8 1 46
2019-10-30 20:00:00 19.2 16 Oeste 28 Oeste 0 948.4 0.8 48
2019-10-30 19:00:00 19.2 12 Oeste 24 Oeste 0 948.1 0.5 49
2019-10-30 18:00:00 20.4 10 Oeste 23 Oeste 0 947.8 0.2 45
2019-10-30 17:00:00 21.5 10 Oeste 34 Oeste 0 947.6 -0.1 42
2019-10-30 16:00:00 21.4 14 Oeste 29 Oeste 0 947.6 -0.5 39
2019-10-30 15:00:00 22.5 18 Oeste 31 Oeste 0 947.6 -1.2 41
2019-10-30 14:00:00 22.2 12 Oeste 32 Oeste 0 947.7 -1.2 45
2019-10-30 13:00:00 21.6 13 Oeste 27 Sudoeste 0 948.1 -0.6 51
2019-10-30 12:00:00 20.6 7 Oeste 20 Nordeste 0 948.8 0.6 55
2019-10-30 11:00:00 19.8 3 Sudeste 19 Norte 0 948.9 1.3 57
2019-10-30 10:00:00 18.2 10 Sudeste 16 Sudoeste 0 948.7 1.6 63
2019-10-30 09:00:00 15 5 Sudeste 15 Sudoeste 0 948.2 1.6 77
2019-10-30 08:00:00 14.8 7 Sudoeste 24 Oeste 0 947.6 0.9 74
2019-10-30 07:00:00 13.9 5 Sur 28 Noroeste 0 947.1 0.3 76
2019-10-30 06:00:00 16 12 Noroeste 43 Noroeste 0 946.6 -0.4 69
2019-10-30 05:00:00 16 15 Noroeste 50 Noroeste 0 946.7 -0.1 71
2019-10-30 04:00:00 16.3 18 Noroeste 44 Oeste 0 946.8 0.2 69
2019-10-30 03:00:00 16.2 21 Noroeste 48 Noroeste 0 947 0.4 71
2019-10-30 02:00:00 16.3 26 Noroeste 49 Noroeste 0 946.8 0.2 68
2019-10-30 01:00:00 16.4 25 Noroeste 47 Noroeste 0 946.6 0 68
2019-10-30 00:00:00 16.5 25 Noroeste 49 Noroeste 0 946.6 0.2 67
2019-10-29 23:00:00 17.1 26 Noroeste 50 Noroeste 0 946.6 0.7 63
2019-10-29 22:00:00 17 19 Noroeste 47 Noroeste 0 946.6 1.4 64
2019-10-29 21:00:00 17.1 18 Noroeste 44 Norte 0 946.4 1.6 63
2019-10-29 20:00:00 17.4 23 Noroeste 41 Noroeste 0 945.9 1.3 64
2019-10-29 19:00:00 18.6 13 Noroeste 33 Noroeste 0 945.2 0.9 58
2019-10-29 18:00:00 19.4 10 Noroeste 27 Noroeste 0 944.8 0.7 55
2019-10-29 17:00:00 21.5 5 Sur 25 Oeste 0 944.6 0.4 50
2019-10-29 16:00:00 22.4 13 Oeste 26 Oeste 0 944.3 -0.5 46
2019-10-29 15:00:00 22.8 9 Noroeste 28 Oeste 0 944.1 -1.3 46
2019-10-29 14:00:00 22.4 11 Oeste 27 Noroeste 0 944.2 -1.2 46
2019-10-29 13:00:00 21.7 9 Oeste 24 Noroeste 0 944.8 -0.3 49
2019-10-29 12:00:00 21.1 9 Oeste 36 Noroeste 0 945.4 0.5 51
2019-10-29 11:00:00 18.9 22 Noroeste 37 Noroeste 0 945.4 1.4 57
2019-10-29 10:00:00 18.7 6 Norte 24 Oeste 0 945.1 1.7 55
2019-10-29 09:00:00 14.8 8 Sudeste 13 Sudeste 0 944.9 1.6 73
2019-10-29 08:00:00 11.6 4 Oeste 15 Sudeste 0 944 0.8 81
2019-10-29 07:00:00 11.9 7 Sudeste 17 Sudeste 0 943.4 0.1 78
2019-10-29 06:00:00 11.5 7 Este 13 Nordeste 0 943.3 -0.3 83
2019-10-29 05:00:00 11 6 Este 12 Noroeste 0 943.2 -0.8 91
2019-10-29 04:00:00 10.8 2 Sudeste 10 Sudoeste 0 943.3 -0.9 91
2019-10-29 03:00:00 10.4 6 Sudoeste 8 Oeste 0 943.6 -0.6 92
2019-10-29 02:00:00 9.8 0 Calma 6 Oeste 0 944 -0.3 90
2019-10-29 01:00:00 10.5 3 Oeste 6 Norte 0 944.2 -0.1 88
2019-10-29 00:00:00 12.2 2 Noroeste 10 Sudoeste 0 944.2 0 90
2019-10-28 23:00:00 11.2 6 Sudoeste 9 Sudoeste 0 944.3 0.3 88
2019-10-28 22:00:00 12.3 3 Este 7 Oeste 0 944.3 0.4 86
2019-10-28 21:00:00 12.9 3 Oeste 11 Oeste 0 944.2 0.6 83
2019-10-28 20:00:00 13.8 5 Oeste 8 Oeste 0 944 0.3 82
2019-10-28 19:00:00 16.1 5 Oeste 11 Oeste 0 943.9 0.1 72
2019-10-28 18:00:00 18.4 4 Sudoeste 14 Sudoeste 0 943.6 -0.5 65
2019-10-28 17:00:00 20.6 10 Sudoeste 16 Sur 0 943.7 -0.8 57
2019-10-28 16:00:00 21.6 6 Este 13 Este 0 943.8 -1.4 44
2019-10-28 15:00:00 20.4 4 Sudeste 8 Sudeste 0 944.1 -1.6 48
2019-10-28 14:00:00 19.1 6 Sur 12 Sur 0 944.5 -1.3 54
2019-10-28 13:00:00 18.9 6 Oeste 18 Oeste 0 945.2 -0.8 54
2019-10-28 12:00:00 18.1 2 Sur 8 Nordeste 0 945.7 -0.2 69
2019-10-28 11:00:00 17.9 3 Sudeste 9 Sur 0 945.8 0.2 72
2019-10-28 10:00:00 15.2 4 Este 8 Sudeste 0 946 0.6 82
2019-10-28 09:00:00 13.1 3 Este 6 Este 0 945.9 0.4 93
2019-10-28 08:00:00 11 3 Sudoeste 6 Oeste 0 945.6 0 94
2019-10-28 07:00:00 11.4 3 Oeste 7 Sudoeste 0 945.4 -0.4 94
2019-10-28 06:00:00 10.5 2 Sudoeste 8 Oeste 0 945.5 -0.7 94
2019-10-28 05:00:00 10.8 3 Noroeste 6 Noroeste 0 945.6 -1.1 94
2019-10-28 04:00:00 9.5 2 Noroeste 9 Oeste 0 945.8 -1.3 93
2019-10-28 03:00:00 9.5 2 Sur 11 Sudoeste 0 946.2 -1.1 93
2019-10-28 02:00:00 9.7 10 Sudoeste 13 Oeste 0 946.7 -0.8 92
2019-10-28 01:00:00 10 3 Oeste 7 Sudoeste 0 947.1 -0.6 91
2019-10-28 00:00:00 11 2 Oeste 17 Oeste 0 947.3 -0.4 90
2019-10-27 23:00:00 11.9 5 Oeste 13 Sudoeste 0 947.5 0.4 90
2019-10-27 22:00:00 12.4 4 Sudoeste 10 Oeste 0 947.7 0.8 88
2019-10-27 21:00:00 13.9 12 Oeste 14 Oeste 0 947.7 1.3 86
2019-10-27 20:00:00 14.5 11 Oeste 14 Oeste 0 947.1 0.6 82
2019-10-27 19:00:00 16.6 12 Oeste 17 Sudoeste 0 946.9 0.3 73
2019-10-27 18:00:00 18.4 7 Sudoeste 12 Sudoeste 0 946.4 -0.3 66
2019-10-27 17:00:00 20.7 6 Sur 10 Sudoeste 0 946.5 -1 54
2019-10-27 16:00:00 21.4 6 Sudeste 20 Sudeste 0 946.6 -1.5 51
2019-10-27 15:00:00 21 7 Sur 14 Sudeste 0 946.7 -1.9 53
2019-10-27 14:00:00 20 9 Sur 16 Sudeste 0 947.5 -1.4 58
2019-10-27 13:00:00 19.8 10 Oeste 20 Sudoeste 0 948.1 -0.8 61
2019-10-27 12:00:00 17.2 8 Sur 12 Sur 0 948.6 -0.1 75
2019-10-27 11:00:00 12.7 0 Calma 6 Nordeste 0 948.9 0.5 94
2019-10-27 10:00:00 10.5 3 Este 8 Sudeste 0 948.9 0.9 94
2019-10-27 09:00:00 8.6 2 Oeste 5 Sudeste 0 948.7 0.6 94
2019-10-27 08:00:00 7.3 3 Oeste 6 Oeste 0 948.4 0.6 94
2019-10-27 07:00:00 7.2 5 Oeste 8 Oeste 0 948 0.3 94
2019-10-27 06:00:00 8.4 4 Oeste 5 Oeste 0 948.1 0 93
2019-10-27 05:00:00 8.1 0 Calma 5 Nordeste 0 947.8 -0.7 93
2019-10-27 04:00:00 8.4 5 Noroeste 10 Oeste 0 947.7 -0.9 92
2019-10-27 03:00:00 8.6 2 Noroeste 4 Oeste 0 948.1 -0.5 92
2019-10-27 02:00:00 9.6 2 Sudoeste 9 Sudoeste 0 948.5 -0.2 91
2019-10-27 01:00:00 10.7 8 Oeste 11 Oeste 0 948.6 0.1 91
2019-10-27 00:00:00 11.3 8 Oeste 12 Oeste 0 948.7 0.7 88
2019-10-26 23:00:00 11.9 7 Oeste 11 Oeste 0 948.7 1.6 87
2019-10-26 22:00:00 12.6 8 Sudoeste 12 Oeste 0 948.5 2.1 83
2019-10-26 21:00:00 13.9 4 Oeste 10 Oeste 0 948 2 77
2019-10-26 20:00:00 16.9 4 Sudoeste 16 Sur 0 947.1 0.9 66
2019-10-26 19:00:00 19.7 10 Sur 23 Sur 0 946.4 0 55
2019-10-26 18:00:00 23.5 9 Sudoeste 15 Sudoeste 0 946 -1 34
2019-10-26 17:00:00 23.8 11 Sudoeste 18 Sur 0 946.2 -1.3 33
2019-10-26 16:00:00 23.9 11 Sur 20 Sur 0 946.4 -1.7 34
2019-10-26 15:00:00 23.8 8 Sur 20 Este 0 947 -1.5 38
2019-10-26 14:00:00 22.8 4 Nordeste 11 Sudeste 0 947.5 -1 41
2019-10-26 13:00:00 22.6 4 Sudeste 9 Sur 0 948.1 -0.2 42
2019-10-26 12:00:00 20.3 2 Sur 8 Nordeste 0 948.5 0.5 56
2019-10-26 11:00:00 16.4 3 Este 6 Este 0 948.5 0.8 68
2019-10-26 10:00:00 11.8 3 Nordeste 8 Nordeste 0 948.3 0.9 86
2019-10-26 09:00:00 8.7 5 Oeste 8 Oeste 0 948 0.6 92
2019-10-26 08:00:00 8.2 3 Norte 18 Oeste 0 947.7 0.3 91
2019-10-26 07:00:00 8.5 9 Oeste 11 Sudeste 0 947.4 -0.3 91
2019-10-26 06:00:00 8.5 5 Oeste 13 Sudoeste 0 947.4 -0.7 90
2019-10-26 05:00:00 8.8 5 Oeste 9 Sudoeste 0 947.4 -1 90
2019-10-26 04:00:00 8.4 5 Sudoeste 8 Sudoeste 0 947.7 -1.1 91
2019-10-26 03:00:00 8.7 5 Oeste 8 Sudoeste 0 948.1 -0.8 89
2019-10-26 02:00:00 9.3 2 Sudoeste 7 Sudoeste 0 948.4 -0.3 88
2019-10-26 01:00:00 10.2 2 Noroeste 16 Oeste 0 948.8 0.2 84
2019-10-26 00:00:00 10.5 10 Oeste 14 Oeste 0 948.9 0.6 87
2019-10-25 23:00:00 11 4 Oeste 10 Oeste 0 948.7 0.9 84
2019-10-25 22:00:00 12.2 3 Oeste 7 Sudoeste 0 948.6 1.1 80
2019-10-25 21:00:00 14.1 4 Oeste 16 Sudoeste 0 948.3 0.9 71
2019-10-25 20:00:00 15.6 13 Oeste 17 Oeste 0 947.8 0.3 66
2019-10-25 19:00:00 19.2 7 Sudoeste 14 Sur 0 947.5 -0.2 52
2019-10-25 18:00:00 21.5 8 Sur 16 Sur 0 947.4 -0.7 41
2019-10-25 17:00:00 22.6 9 Sur 14 Sur 0 947.5 -1.3 36
2019-10-25 16:00:00 23.4 3 Sudeste 14 Noroeste 0 947.7 -1.5 31
2019-10-25 15:00:00 22.3 8 Sur 18 Sur 0 948.1 -1.5 33
2019-10-25 14:00:00 20.8 8 Oeste 22 Noroeste 0 948.8 -0.6 42
2019-10-25 13:00:00 20 6 Sudeste 24 Oeste 0 949.2 -0.5 46
2019-10-25 12:00:00 18.7 5 Sudeste 26 Oeste 0 949.6 0.1 47
2019-10-25 11:00:00 15.8 20 Noroeste 41 Norte 0 949.4 0.2 53
2019-10-25 10:00:00 14.8 -- -- -- -- 0 949.7 0.6 55
2019-10-25 09:00:00 13 12 Norte 37 Noroeste 0 949.5 0.5 62
2019-10-25 08:00:00 13.1 23 Noroeste 43 Noroeste 0 949.2 0.5 60
2019-10-25 07:00:00 12.8 31 Noroeste 49 Noroeste 0 949.1 0 62
2019-10-25 06:00:00 12.8 23 Noroeste 51 Noroeste 0 949 -0.3 61
2019-10-25 05:00:00 12.6 19 Noroeste 47 Noroeste 0 948.7 -0.8 63
2019-10-25 04:00:00 13.3 14 Noroeste 37 Noroeste 0 949.1 -0.2 59
2019-10-25 03:00:00 13.4 24 Noroeste 46 Noroeste 0 949.3 0 59
2019-10-25 02:00:00 13.4 22 Noroeste 49 Oeste 0 949.5 0.9 60
2019-10-25 01:00:00 13.5 23 Noroeste 48 Noroeste 0 949.3 0.9 61
2019-10-25 00:00:00 13.4 17 Noroeste 46 Oeste 0 949.3 1.5 61
2019-10-24 23:00:00 13.8 24 Noroeste 49 Oeste 0 948.6 1.5 59
2019-10-24 22:00:00 13.3 18 Oeste 41 Oeste 0 948.4 2.2 60
2019-10-24 21:00:00 13.6 20 Oeste 44 Oeste 0 947.8 2.4 58
2019-10-24 20:00:00 13.8 18 Oeste 36 Oeste 0 947.1 2.3 55
2019-10-24 19:00:00 14.4 22 Oeste 49 Oeste 0 946.2 2.2 53
2019-10-24 18:00:00 15.5 21 Oeste 57 Oeste 0 945.4 1 50
2019-10-24 17:00:00 15.9 28 Oeste 54 Oeste 0 944.8 0.4 50
2019-10-24 16:00:00 15.7 17 Oeste 43 Oeste 0 944 -0.8 49
2019-10-24 15:00:00 14.5 22 Oeste 59 Oeste 0 944.4 0.1 54
2019-10-24 14:00:00 14 31 Oeste 52 Oeste 0 944.4 0.4 59
2019-10-24 13:00:00 13.1 22 Oeste 51 Oeste 0 944.8 1.7 61
2019-10-24 12:00:00 13.8 26 Oeste 48 Oeste 0 944.3 2.2 60
2019-10-24 11:00:00 12.1 23 Oeste 41 Oeste 0 944 2.9 66
2019-10-24 10:00:00 11.2 21 Oeste 41 Oeste 0 943.1 2.6 70
2019-10-24 09:00:00 10.7 10 Noroeste 58 Oeste 0 942.1 2.5 70
2019-10-24 08:00:00 10.7 24 Oeste 51 Oeste 0 941.1 1.8 68
2019-10-24 07:00:00 10.6 27 Oeste 49 Oeste 0 940.5 1.4 74
2019-10-24 06:00:00 10.5 23 Oeste 45 Oeste 0 939.6 0.9 75
2019-10-24 05:00:00 10.3 21 Oeste 37 Oeste 0 939.3 0.9 76
2019-10-24 04:00:00 10.3 19 Oeste 33 Oeste 0 939.1 0.5 75
2019-10-24 03:00:00 9.9 9 Oeste 26 Oeste 0 938.7 0.1 76
2019-10-24 02:00:00 9.6 12 Oeste 22 Oeste 0 938.4 0.4 74
2019-10-24 01:00:00 9.2 6 Sudoeste 15 Oeste 0 938.6 0.9 77
2019-10-24 00:00:00 9.2 10 Sudoeste 19 Sudoeste 0 938.6 1.2 76
2019-10-23 23:00:00 8.7 12 Sudoeste 25 Oeste 0 938 0.9 76
2019-10-23 22:00:00 9 15 Sudoeste 23 Oeste 0 937.7 0.9 75
2019-10-23 21:00:00 9.5 14 Oeste 23 Oeste 0 937.4 1 69
2019-10-23 20:00:00 10.4 9 Oeste 23 Oeste 0 937.1 1.3 63
2019-10-23 19:00:00 11 13 Oeste 33 Sudoeste 0 936.8 1.5 60
2019-10-23 18:00:00 12 20 Oeste 35 Oeste 0 936.4 1.2 58
2019-10-23 17:00:00 13.2 21 Oeste 34 Oeste 0 935.8 0.7 54
2019-10-23 16:00:00 13.2 17 Oeste 32 Oeste 0 935.3 0.2 56
2019-10-23 15:00:00 13.5 17 Oeste 34 Oeste 0 935.2 -0.1 57
2019-10-23 14:00:00 14 21 Sudoeste 36 Sudoeste 0 935.1 -0.2 53
2019-10-23 13:00:00 14.1 20 Sudoeste 32 Sudoeste 0 935.1 0.1 56
2019-10-23 12:00:00 12.3 13 Oeste 23 Sudoeste 0 935.3 0.7 61
2019-10-23 11:00:00 12.1 13 Oeste 20 Sudoeste 0 935.3 1.1 67
2019-10-23 10:00:00 7.2 3 Oeste 8 Sudoeste 0 935 0.5 87
2019-10-23 09:00:00 6.6 6 Sur 10 Sudoeste 0 934.6 0.4 86
2019-10-23 08:00:00 6.8 8 Sudoeste 11 Sudoeste 0 934.2 0.7 85
2019-10-23 07:00:00 7.5 3 Oeste 20 Oeste 0 934.5 0.6 80
2019-10-23 06:00:00 8.1 11 Oeste 41 Oeste 0 934.2 0.4 77
2019-10-23 05:00:00 8.7 24 Oeste 37 Oeste 0 933.5 -0.4 76
2019-10-23 04:00:00 9 13 Sudoeste 23 Oeste 0 933.9 0.1 81
2019-10-23 03:00:00 8.8 9 Oeste 18 Oeste 0 933.8 -0.4 84
2019-10-23 02:00:00 8.8 10 Sudoeste 25 Oeste 0 933.9 -0.9 83
2019-10-23 01:00:00 9.3 18 Oeste 31 Oeste 0 933.8 -1.1 81
2019-10-23 00:00:00 9.5 17 Oeste 33 Oeste 0.2 934.2 -0.2 81
2019-10-22 23:00:00 9.5 17 Noroeste 29 Noroeste 0 934.8 0.8 82
2019-10-22 22:00:00 9.9 16 Noroeste 35 Noroeste 0 934.9 0.5 81
2019-10-22 21:00:00 10.2 14 Oeste 22 Oeste 0 934.4 0.1 85
2019-10-22 20:00:00 10.1 17 Oeste 23 Oeste 0 934 -0.6 86
2019-10-22 19:00:00 10.8 9 Sudoeste 17 Sudoeste 0 934.4 -0.1 84
2019-10-22 18:00:00 11.4 9 Sudoeste 16 Norte 0 934.3 -1.8 81
2019-10-22 17:00:00 11.1 6 Sudoeste 32 Noroeste 0 934.6 -2.5 82
2019-10-22 16:00:00 10.4 16 Norte 26 Norte 0.8 934.5 -3.5 82
2019-10-22 15:00:00 9.6 8 Nordeste 20 Norte 1 936.1 -2.1 85
2019-10-22 14:00:00 9.6 13 Norte 30 Nordeste 1.2 937.1 -1.8 85
2019-10-22 13:00:00 9.3 10 Nordeste 24 Nordeste 1.2 938 -0.8 85
2019-10-22 12:00:00 9.3 11 Nordeste 31 Nordeste 1.6 938.2 -0.3 84
2019-10-22 11:00:00 9.9 15 Nordeste 34 Nordeste 14 938.9 0.5 86
2019-10-22 10:00:00 10.1 12 Norte 19 Norte 0 938.8 -0.1 90
2019-10-22 09:00:00 10.3 7 Nordeste 19 Nordeste 0 938.5 -0.5 90
2019-10-22 08:00:00 10.3 10 Nordeste 23 Nordeste 0 938.4 -1.8 91
2019-10-22 07:00:00 10.8 10 Nordeste 27 Nordeste 0 938.9 -1.8 91
2019-10-22 06:00:00 10.8 11 Nordeste 19 Nordeste 0 939 -2.5 91
2019-10-22 05:00:00 11.2 8 Nordeste 23 Nordeste 0 940.2 -2.2 90
2019-10-22 04:00:00 11.5 9 Nordeste 22 Norte 0 940.7 -1.9 82
2019-10-22 03:00:00 11.6 12 Nordeste 19 Nordeste 0 941.5 -1.9 74
2019-10-22 02:00:00 11.2 4 Nordeste 12 Nordeste 0 942.4 -1.2 77
2019-10-22 01:00:00 10.5 5 Sudeste 8 Este 0 942.6 -0.3 80
2019-10-22 00:00:00 10.9 4 Nordeste 7 Nordeste 0 943.4 0 78
2019-10-21 23:00:00 11.2 3 Noroeste 9 Nordeste 0 943.6 0.3 75
2019-10-21 22:00:00 11.7 6 Nordeste 11 Nordeste 0 942.9 0 73
2019-10-21 21:00:00 12.5 6 Nordeste 12 Nordeste 0 943.4 0.8 71
2019-10-21 20:00:00 13.3 0 Calma 8 Sudeste 0 943.3 0.6 62
2019-10-21 19:00:00 14.4 5 Sur 13 Sudeste 0 942.9 0.1 55
2019-10-21 18:00:00 15.6 5 Sudeste 13 Sur 0 942.6 -0.5 47
2019-10-21 17:00:00 15.9 8 Sur 14 Sur 0 942.7 -0.9 44
2019-10-21 16:00:00 17 7 Sur 21 Sudoeste 0 942.8 -1.4 42
2019-10-21 15:00:00 17.4 7 Sur 16 Sur 0 943.1 -1.2 40
2019-10-21 14:00:00 17 3 Oeste 12 Sudeste 0 943.6 -0.6 38
2019-10-21 13:00:00 14.9 8 Nordeste 18 Norte 0 944.2 0.2 44
2019-10-21 12:00:00 14.7 8 Norte 17 Norte 0 944.3 0.9 47
2019-10-21 11:00:00 11.7 3 Este 9 Este 0 944.2 1.6 69
2019-10-21 10:00:00 7.1 3 Sudeste 6 Sudoeste 0 944 1.5 88
2019-10-21 09:00:00 4.8 3 Nordeste 6 Sudoeste 0 943.4 0.8 89
2019-10-21 08:00:00 5 4 Este 15 Oeste 0 942.6 0.2 87
2019-10-21 07:00:00 5.7 13 Oeste 17 Oeste 0 942.5 -0.4 89
2019-10-21 06:00:00 5.7 3 Sur 9 Sudeste 0 942.6 -0.2 85
2019-10-21 05:00:00 5.9 2 Este 16 Oeste 0 942.4 -0.2 83
2019-10-21 04:00:00 6.3 9 Oeste 12 Oeste 0 942.9 0.4 83
2019-10-21 03:00:00 7.9 5 Nordeste 10 Sudoeste 0 942.8 0.5 75
2019-10-21 02:00:00 8.7 8 Oeste 15 Oeste 0 942.6 0.8 72
2019-10-21 01:00:00 10.7 10 Oeste 25 Oeste 0 942.5 1.2 62
2019-10-21 00:00:00 11.8 13 Oeste 36 Noroeste 0 942.3 1.2 56
2019-10-20 23:00:00 12 16 Noroeste 38 Norte 0 941.8 1.7 58
2019-10-20 22:00:00 12.3 17 Noroeste 35 Noroeste 0 941.3 2.3 59
2019-10-20 21:00:00 12.7 18 Noroeste 36 Norte 0 941.1 2.8 58
2019-10-20 20:00:00 14 15 Noroeste 29 Oeste 0 940.1 1.7 54
2019-10-20 19:00:00 16 19 Oeste 32 Oeste 0 939 1.6 40
2019-10-20 18:00:00 16.8 9 Sudoeste 18 Sudoeste 0 938.3 0.5 46
2019-10-20 17:00:00 15.1 9 Sudoeste 27 Oeste 0 938.4 2.4 50
2019-10-20 16:00:00 14.8 16 Oeste 32 Oeste 0 937.4 -0.1 54
2019-10-20 15:00:00 15.2 10 Oeste 22 Oeste 0 937.8 -0.3 62
2019-10-20 14:00:00 13.7 10 Noroeste 22 Sudoeste 0 936 -1.5 68
2019-10-20 13:00:00 13.2 8 Sur 16 Sudoeste 0 937.5 1 78
2019-10-20 12:00:00 12.2 7 Sudoeste 15 Sudoeste 0 938.1 1.7 82
2019-10-20 11:00:00 12.2 9 Sudoeste 23 Oeste 0 937.5 2.1 79
2019-10-20 10:00:00 13.2 11 Oeste 17 Oeste 0 936.5 0.7 83
2019-10-20 09:00:00 13.4 9 Sudoeste 18 Sudoeste 0 936.4 2.5 82
2019-10-20 08:00:00 13.7 7 Sudoeste 41 Oeste 0 935.4 1.9 80
2019-10-20 07:00:00 13.9 31 Oeste 50 Oeste 0 935.8 1.9 83
2019-10-20 06:00:00 14.6 8 Sudoeste 11 Sudoeste 0 933.9 -0.7 76
2019-10-20 05:00:00 13.5 4 Sudoeste 13 Sudoeste 0 933.5 -1.1 80
2019-10-20 04:00:00 13.8 10 Sudoeste 13 Sudoeste 0 933.9 -1 80
2019-10-20 03:00:00 13.9 9 Sudoeste 14 Sudoeste 0 934.6 -0.7 78
2019-10-20 02:00:00 14.1 12 Oeste 15 Oeste 0 934.6 -0.7 82
2019-10-20 01:00:00 13.5 7 Sudoeste 14 Oeste 0 934.9 -0.3 83
2019-10-20 00:00:00 14.1 9 Sudoeste 13 Sudoeste 0 935.3 0 82
2019-10-19 23:00:00 14.8 8 Oeste 11 Oeste 0 935.3 -0.1 76
2019-10-19 22:00:00 16.3 3 Sudoeste 8 Oeste 0 935.2 -0.2 68
2019-10-19 21:00:00 18 5 Sudoeste 16 Oeste 0 935.3 -0.2 62
2019-10-19 20:00:00 19.2 9 Sudoeste 17 Sur 0 935.4 -0.5 58
2019-10-19 19:00:00 21.2 11 Sur 19 Sudeste 0 935.4 -1 49
2019-10-19 18:00:00 23 12 Sur 23 Sudoeste 0 935.5 -1.3 42
2019-10-19 17:00:00 24.4 10 Sur 27 Sudoeste 0 935.9 -1.8 35
2019-10-19 16:00:00 25.5 13 Sudoeste 28 Sur 0 936.4 -2.4 32
2019-10-19 15:00:00 24.7 13 Sur 26 Sudoeste 0 936.8 -2.7 34
2019-10-19 14:00:00 24.5 12 Oeste 28 Oeste 0 937.7 -2.2 36
2019-10-19 13:00:00 23.8 14 Sudoeste 26 Oeste 0 938.8 -1.2 39
2019-10-19 12:00:00 22.9 3 Sudoeste 11 Nordeste 0 939.5 -0.1 45
2019-10-19 11:00:00 20.1 4 Sudeste 10 Sudeste 0 939.9 0.5 54
2019-10-19 10:00:00 16.5 3 Este 8 Sudoeste 0 940 0.5 68
2019-10-19 09:00:00 10.1 3 Sur 6 Sudoeste 0 939.6 0.1 87
2019-10-19 08:00:00 9.6 5 Noroeste 9 Oeste 0 939.4 -0.3 82
2019-10-19 07:00:00 10.6 3 Noroeste 9 Noroeste 0 939.5 -1 80
2019-10-19 06:00:00 9.9 3 Oeste 9 Oeste 0 939.5 -1.6 79
2019-10-19 05:00:00 10.6 6 Oeste 10 Sudoeste 0 939.7 -1.6 75
2019-10-19 04:00:00 10.6 2 Sudeste 8 Sudoeste 0 940.5 -1.2 70
2019-10-19 03:00:00 11.1 7 Sudoeste 11 Este 0 941.1 -0.9 68
2019-10-19 02:00:00 11.5 6 Oeste 10 Oeste 0 941.3 -0.8 68
2019-10-19 01:00:00 11.8 5 Oeste 9 Oeste 0 941.7 -0.3 67
2019-10-19 00:00:00 12.9 4 Sudoeste 10 Sudoeste 0 942 -0.2 62
2019-10-18 23:00:00 15.2 4 Noroeste 13 Sudoeste 0 942.1 -0.1 55
2019-10-18 22:00:00 17.7 11 Oeste 15 Oeste 0 942 -0.1 45
2019-10-18 21:00:00 19 10 Sudoeste 19 Oeste 0 942.2 -0.1 41
2019-10-18 20:00:00 20.5 10 Oeste 13 Oeste 0 942.2 -0.4 40
2019-10-18 19:00:00 22.2 7 Oeste 16 Sur 0 942.1 -0.9 41
2019-10-18 18:00:00 23.8 8 Sudoeste 18 Oeste 0 942.3 -1.2 35
2019-10-18 17:00:00 24.8 9 Sudoeste 23 Oeste 0 942.6 -1.8 33
2019-10-18 16:00:00 25.3 9 Sudoeste 22 Oeste 0 943 -2.2 32
2019-10-18 15:00:00 24.4 8 Oeste 16 Sudoeste 0 943.5 -2 33
2019-10-18 14:00:00 24.1 6 Oeste 15 Oeste 0 944.4 -1.1 33
2019-10-18 13:00:00 22.2 8 Sudoeste 20 Noroeste 0 945.2 -0.3 38
2019-10-18 12:00:00 21 9 Norte 19 Norte 0 945.5 0.8 42
2019-10-18 11:00:00 19 8 Este 24 Noroeste 0 945.5 0.5 44
2019-10-18 10:00:00 14.4 5 Nordeste 10 Norte 0 945.5 0.8 59
2019-10-18 09:00:00 11.6 3 Este 9 Noroeste 0 944.7 -0.1 67
2019-10-18 08:00:00 10.6 4 Oeste 7 Oeste 0 945 0.1 70
2019-10-18 07:00:00 10.3 2 Oeste 8 Nordeste 0 944.7 -0.6 69
2019-10-18 06:00:00 10.9 4 Nordeste 10 Norte 0 944.8 -0.8 67
2019-10-18 05:00:00 9.8 4 Sudoeste 8 Oeste 0 944.9 -0.8 74
2019-10-18 04:00:00 11.2 2 Sur 9 Nordeste 0 945.3 -0.8 70
2019-10-18 03:00:00 12.2 3 Nordeste 10 Sudeste 0 945.6 -0.3 69
2019-10-18 02:00:00 12.5 2 Norte 13 Oeste 0 945.7 -0.1 68
2019-10-18 01:00:00 13.2 2 Sur 9 Norte 0 946.1 0.5 61
2019-10-18 00:00:00 15.8 6 Este 23 Oeste 0 945.9 0.9 54
2019-10-17 23:00:00 17.8 4 Este 18 Sudoeste 0 945.8 1.2 47
2019-10-17 22:00:00 18.4 7 Sudeste 33 Oeste 0 945.6 1.4 45
2019-10-17 21:00:00 19.6 13 Noroeste 30 Noroeste 0 945 0.9 40
2019-10-17 20:00:00 20 4 Oeste 15 Norte 0 944.6 0.5 35
2019-10-17 19:00:00 21.2 6 Noroeste 23 Oeste 0 944.2 -0.1 32
2019-10-17 18:00:00 22.5 11 Oeste 35 Oeste 0 944.1 -0.6 29
2019-10-17 17:00:00 23.4 9 Oeste 32 Oeste 0 944.1 -1.3 26
2019-10-17 16:00:00 23.9 14 Oeste 36 Oeste 0 944.3 -1.7 24
2019-10-17 15:00:00 23.1 10 Oeste -- -- 0 944.7 -1.5 22
2019-10-17 14:00:00 22.4 18 Oeste 39 Oeste 0 945.4 -0.5 24
2019-10-17 13:00:00 21 20 Oeste 37 Oeste 0 946 0.2 26
2019-10-17 12:00:00 20.5 8 Sudoeste 31 Noroeste 0 946.2 1.1 28
2019-10-17 11:00:00 18 16 Noroeste 35 Norte 0 945.9 1.1 34
2019-10-17 10:00:00 12.9 5 Sudeste 11 Sudeste 0 945.8 1.2 49
2019-10-17 09:00:00 7.6 5 Oeste 9 Oeste 0 945.1 0.5 68
2019-10-17 08:00:00 6.6 3 Oeste 6 Oeste 0 944.8 0.1 65
2019-10-17 07:00:00 7.9 4 Nordeste 9 Norte 0 944.6 -0.3 60
2019-10-17 06:00:00 7.8 4 Sudeste 13 Norte 0 944.6 -0.7 61
2019-10-17 05:00:00 7.1 5 Oeste 9 Sudoeste 0 944.7 -0.4 67
2019-10-17 04:00:00 7.1 5 Sudoeste 8 Oeste 0 944.9 -0.5 68
2019-10-17 03:00:00 7.9 2 Noroeste 7 Noroeste 0 945.3 -0.3 64
2019-10-17 02:00:00 9.4 5 Oeste 12 Oeste 0 945.1 -0.4 58
2019-10-17 01:00:00 11.9 9 Oeste 14 Oeste 0 945.4 0.4 52
2019-10-17 00:00:00 12 8 Oeste 12 Sudoeste 0 945.6 1.2 55
2019-10-16 23:00:00 11.7 0 Calma 4 Oeste 0 945.5 1.3 55
2019-10-16 22:00:00 14.6 2 Nordeste 18 Sudoeste 0 945 0.8 43
2019-10-16 21:00:00 14.5 14 Sudoeste 17 Oeste 0 944.4 0.2 45
2019-10-16 20:00:00 17.1 10 Oeste 14 Oeste 0 944.2 -0.5 36
2019-10-16 19:00:00 20.5 7 Sudoeste 14 Sudoeste 0 944.2 -0.9 27
2019-10-16 18:00:00 22.2 8 Sudoeste 16 Oeste 0 944.2 -1.4 21
2019-10-16 17:00:00 22.6 3 Sudeste 17 Sudoeste 0 944.7 -1.8 23
2019-10-16 16:00:00 22.3 11 Oeste 22 Sudoeste 0 945.1 -2 18
2019-10-16 15:00:00 22 13 Oeste 23 Sudoeste 0 945.6 -1.9 19
2019-10-16 14:00:00 20.7 12 Sudoeste 24 Sudoeste 0 946.5 -1.3 25
2019-10-16 13:00:00 19.9 10 Sudoeste 18 Sudoeste 0 947.1 -0.5 29
2019-10-16 12:00:00 17.6 4 Norte 9 Nordeste 0 947.5 0.1 36
2019-10-16 11:00:00 15.3 5 Este 9 Este 0 947.8 0.9 42
2019-10-16 10:00:00 11.7 3 Sudeste 8 Sudoeste 0 947.6 0.6 53
2019-10-16 09:00:00 5.8 4 Sudoeste 5 Sudoeste 0 947.4 0.4 78
2019-10-16 08:00:00 5 0 Calma 6 Oeste 0 946.9 -0.2 74
2019-10-16 07:00:00 5 2 Noroeste 5 Sur 0 947 0 76
2019-10-16 06:00:00 5.7 5 Sudoeste 10 Sudoeste 0 947 -0.4 72
2019-10-16 05:00:00 5.5 3 Sudoeste 8 Oeste 0 947.1 -0.3 70
2019-10-16 04:00:00 7.6 2 Oeste 8 Sudoeste 0 947 -0.2 62
2019-10-16 03:00:00 9 0 Calma 13 Sudoeste 0 947.4 -0.1 56
2019-10-16 02:00:00 14.5 9 Norte 27 Noroeste 0 947.4 -0.1 33
2019-10-16 01:00:00 14.7 20 Noroeste 36 Noroeste 0 947.2 0.1 32
2019-10-16 00:00:00 14.4 15 Noroeste 35 Noroeste 0 947.5 0.4 33
2019-10-15 23:00:00 14.8 16 Noroeste 29 Noroeste 0 947.5 1 33
2019-10-15 22:00:00 14.8 10 Noroeste 27 Noroeste 0 947.1 0.9 34
2019-10-15 21:00:00 14.9 5 Norte 22 Noroeste 0 947.1 1.3 34
2019-10-15 20:00:00 15.7 10 Oeste 19 Oeste 0 946.5 0.8 31
2019-10-15 19:00:00 17.5 10 Oeste 26 Oeste 0 946.2 0.2 29
2019-10-15 18:00:00 18.5 13 Oeste 34 Oeste 0 945.8 -0.4 27
2019-10-15 17:00:00 19.1 13 Oeste 36 Oeste 0 945.7 -0.8 26
2019-10-15 16:00:00 18.5 12 Sudoeste 41 Oeste 0 946 -1 26
2019-10-15 15:00:00 18 20 Oeste 40 Oeste 0 946.2 -1.3 28
2019-10-15 14:00:00 17 18 Sudoeste 50 Oeste 0 946.5 -0.6 32
2019-10-15 13:00:00 15.4 24 Oeste 49 Oeste 0 947 0.4 37
2019-10-15 12:00:00 14.2 20 Oeste 41 Oeste 0 947.5 1.5 42
2019-10-15 11:00:00 13.2 19 Oeste 42 Oeste 0 947.1 1.5 50
2019-10-15 10:00:00 11.7 13 Oeste 40 Oeste 0 946.6 1.4 60
2019-10-15 09:00:00 10.7 18 Oeste 33 Oeste 0 946 1.2 67
2019-10-15 08:00:00 10.6 19 Oeste 44 Oeste 0 945.6 1.3 68
2019-10-15 07:00:00 10.8 19 Oeste 37 Oeste 0.4 945.2 1 67
2019-10-15 06:00:00 11 21 Oeste 54 Oeste 0.4 944.8 1 66
2019-10-15 05:00:00 11.4 26 Oeste 46 Oeste 0.4 944.3 0.4 66
2019-10-15 04:00:00 11.7 19 Oeste 39 Oeste 0 944.2 0.4 67
2019-10-15 03:00:00 12.3 23 Oeste 41 Oeste 0 943.8 0.4 65
2019-10-15 02:00:00 12.8 15 Oeste 51 Oeste 0 943.9 1.1 68
2019-10-15 01:00:00 13.5 21 Oeste 46 Oeste 0 943.8 2.1 60
2019-10-15 00:00:00 13.7 6 Noroeste 48 Oeste 0 943.4 2.4 66
2019-10-14 23:00:00 16.4 24 Oeste 47 Oeste 0 942.8 2.6 55
2019-10-14 22:00:00 16.7 14 Oeste 27 Oeste 0 941.7 1.8 54
2019-10-14 21:00:00 17.8 14 Oeste 42 Oeste 0 941 1.8 50
2019-10-14 20:00:00 18.3 23 Oeste 37 Oeste 0 940.2 0.6 54
2019-10-14 19:00:00 17.2 25 Oeste -- -- 0 939.9 -0.3 74
2019-10-14 18:00:00 23.8 14 Sur 22 Sudoeste 0 939.2 -1.3 42
2019-10-14 17:00:00 24.9 13 Sudoeste 23 Sudoeste 0 939.6 -1.6 39
2019-10-14 16:00:00 23.9 10 Oeste 23 Oeste 0 940.2 -1.8 42
2019-10-14 15:00:00 22.3 5 Sur 10 Sudeste 0 940.5 -2 53
2019-10-14 14:00:00 20.5 5 Este 13 Norte 0 941.2 -1.7 65
2019-10-14 13:00:00 21.8 6 Sudeste 17 Este 0 942 0.1 56
2019-10-14 12:00:00 20.9 4 Sudeste 12 Sudoeste 0 942.5 1.5 60
2019-10-14 11:00:00 17.3 14 Oeste 38 Oeste 0 942.9 1.7 79
2019-10-14 10:00:00 14.6 13 Sudoeste 19 Oeste 0 941.9 0.6 94
2019-10-14 09:00:00 13.1 2 Este 5 Este 0 941 -0.5 94
2019-10-14 08:00:00 13.1 0 Calma 13 Sudoeste 0 941.2 -0.8 93
2019-10-14 07:00:00 13.3 8 Sudoeste 12 Sudoeste 0 941.3 -1.3 93
2019-10-14 06:00:00 13.9 7 Sudoeste 11 Sudoeste 0 941.5 -2 93
2019-10-14 05:00:00 15.6 5 Oeste 8 Oeste 0 942 -1.9 92
2019-10-14 04:00:00 14.9 6 Oeste 10 Oeste 0 942.6 -1.4 92
2019-10-14 03:00:00 16.2 7 Oeste 12 Oeste 0 943.5 -0.8 91
2019-10-14 02:00:00 17.1 6 Oeste 8 Oeste 0 943.9 -0.2 89
2019-10-14 01:00:00 16.6 3 Sudoeste 11 Oeste 0 944 0 88
2019-10-14 00:00:00 15.9 8 Oeste 10 Oeste 0 944.3 0.3 86